createdAt,value
2018-10-17T00:01:49.056Z,21.93
2018-10-17T00:04:18.112Z,22.63
2018-10-17T00:06:47.419Z,21.67
2018-10-17T00:09:16.901Z,21.30
2018-10-17T00:11:45.981Z,21.23
2018-10-17T00:14:15.901Z,21.37
2018-10-17T00:16:45.217Z,20.40
2018-10-17T00:19:14.583Z,20.27
2018-10-17T00:21:44.849Z,21.60
2018-10-17T00:24:13.748Z,20.27
2018-10-17T00:26:42.920Z,21.40
2018-10-17T00:29:11.916Z,20.93
2018-10-17T00:31:40.972Z,20.23
2018-10-17T00:34:09.882Z,19.53
2018-10-17T00:36:39.299Z,19.80
2018-10-17T00:39:09.568Z,20.07
2018-10-17T00:41:38.547Z,19.77
2018-10-17T00:44:07.208Z,19.87
2018-10-17T00:46:36.308Z,19.20
2018-10-17T00:49:06.291Z,20.37
2018-10-17T00:51:35.333Z,20.07
2018-10-17T00:54:04.171Z,21.03
2018-10-17T00:56:34.055Z,21.50
2018-10-17T00:59:08.070Z,20.73
2018-10-17T01:01:37.633Z,20.87
2018-10-17T01:04:06.984Z,21.77
2018-10-17T01:06:36.567Z,21.50
2018-10-17T01:09:11.435Z,21.50
2018-10-17T01:11:40.916Z,22.17
2018-10-17T01:14:09.910Z,21.63
2018-10-17T01:16:38.750Z,20.60
2018-10-17T01:19:07.694Z,21.33
2018-10-17T01:21:37.144Z,21.20
2018-10-17T01:24:06.142Z,20.53
2018-10-17T01:26:35.054Z,20.17
2018-10-17T01:29:04.025Z,19.83
2018-10-17T01:31:33.188Z,20.60
2018-10-17T01:34:02.540Z,21.73
2018-10-17T01:36:31.797Z,19.87
2018-10-17T01:39:01.267Z,20.17
2018-10-17T01:41:30.165Z,20.63
2018-10-17T01:43:59.156Z,20.83
2018-10-17T01:46:28.083Z,20.07
2018-10-17T01:48:57.028Z,20.03
2018-10-17T01:51:26.933Z,21.07
2018-10-17T01:53:56.034Z,20.93
2018-10-17T01:56:24.961Z,20.83
2018-10-17T01:58:54.538Z,20.40
2018-10-17T02:01:23.702Z,20.20
2018-10-17T02:03:52.731Z,20.63
2018-10-17T02:06:21.596Z,19.03
2018-10-17T02:08:50.435Z,19.63
2018-10-17T02:11:22.187Z,18.40
2018-10-17T02:13:51.138Z,20.07
2018-10-17T02:16:20.454Z,18.37
2018-10-17T02:18:49.268Z,19.27
2018-10-17T02:21:18.170Z,19.53
2018-10-17T02:23:46.974Z,19.87
2018-10-17T02:26:15.883Z,19.73
2018-10-17T02:28:44.610Z,20.57
2018-10-17T02:31:13.568Z,19.60
2018-10-17T02:33:42.583Z,19.77
2018-10-17T02:36:11.483Z,19.50
2018-10-17T02:38:40.485Z,19.13
2018-10-17T02:41:09.402Z,19.20
2018-10-17T02:43:38.635Z,19.47
2018-10-17T02:46:07.774Z,19.43
2018-10-17T02:48:36.623Z,19.90
2018-10-17T02:51:05.684Z,19.10
2018-10-17T02:53:34.452Z,19.03
2018-10-17T02:56:03.398Z,19.37
2018-10-17T02:58:32.439Z,18.50
2018-10-17T03:01:02.389Z,19.60
2018-10-17T03:03:31.117Z,19.90
2018-10-17T03:05:59.855Z,19.90
2018-10-17T03:08:28.867Z,20.33
2018-10-17T03:10:57.766Z,20.20
2018-10-17T03:13:27.491Z,20.90
2018-10-17T03:15:57.079Z,20.00
2018-10-17T03:18:25.875Z,20.63
2018-10-17T03:20:55.189Z,20.03
2018-10-17T03:23:24.303Z,20.40
2018-10-17T03:25:54.090Z,21.13
2018-10-17T03:28:23.116Z,22.20
2018-10-17T03:30:51.847Z,21.37
2018-10-17T03:33:20.630Z,22.23
2018-10-17T03:35:53.552Z,21.13
2018-10-17T03:38:22.294Z,21.83
2018-10-17T03:40:51.974Z,22.17
2018-10-17T03:43:20.993Z,21.73
2018-10-17T03:45:49.927Z,22.37
2018-10-17T03:48:19.177Z,21.70
2018-10-17T03:50:48.059Z,22.20
2018-10-17T03:53:16.792Z,21.70
2018-10-17T03:55:45.914Z,23.00
2018-10-17T03:58:14.840Z,22.57
2018-10-17T04:00:43.804Z,21.73
2018-10-17T04:03:13.533Z,22.33
2018-10-17T04:05:42.722Z,22.53
2018-10-17T04:08:11.792Z,23.97
2018-10-17T04:10:41.146Z,22.60
2018-10-17T04:13:10.417Z,22.60
2018-10-17T04:15:39.174Z,22.03
2018-10-17T04:18:08.292Z,23.00
2018-10-17T04:20:37.187Z,21.40
2018-10-17T04:23:06.205Z,22.60
2018-10-17T04:25:34.980Z,23.13
2018-10-17T04:28:04.065Z,23.37
2018-10-17T04:30:32.817Z,22.50
2018-10-17T04:33:01.901Z,21.77
2018-10-17T04:35:30.658Z,21.33
2018-10-17T04:37:59.918Z,22.03
2018-10-17T04:40:28.591Z,23.50
2018-10-17T04:42:57.497Z,22.57
2018-10-17T04:45:26.607Z,22.70
2018-10-17T04:47:55.915Z,22.40
2018-10-17T04:50:25.481Z,22.77
2018-10-17T04:52:54.193Z,23.37
2018-10-17T04:55:22.848Z,23.50
2018-10-17T04:57:51.594Z,24.33
2018-10-17T05:00:21.302Z,23.43
2018-10-17T05:02:51.784Z,24.30
2018-10-17T05:05:21.090Z,23.83
2018-10-17T05:07:49.888Z,24.07
2018-10-17T05:10:18.840Z,23.83
2018-10-17T05:12:48.085Z,24.50
2018-10-17T05:15:16.882Z,23.10
2018-10-17T05:17:46.316Z,22.50
2018-10-17T05:20:15.041Z,23.53
2018-10-17T05:22:44.204Z,23.30
2018-10-17T05:25:13.222Z,22.90
2018-10-17T05:27:41.857Z,23.57
2018-10-17T05:30:11.057Z,23.53
2018-10-17T05:32:40.217Z,23.50
2018-10-17T05:35:09.295Z,22.67
2018-10-17T05:37:39.124Z,23.47
2018-10-17T05:40:08.136Z,23.17
2018-10-17T05:42:37.710Z,23.67
2018-10-17T05:45:07.533Z,24.20
2018-10-17T05:47:36.623Z,23.70
2018-10-17T05:50:05.558Z,24.23
2018-10-17T05:52:35.896Z,24.50
2018-10-17T05:55:05.045Z,24.07
2018-10-17T05:57:34.012Z,25.77
2018-10-17T06:00:02.839Z,24.70
2018-10-17T06:02:34.433Z,24.73
2018-10-17T06:05:03.317Z,24.93
2018-10-17T06:07:31.994Z,24.23
2018-10-17T06:10:00.649Z,26.03
2018-10-17T06:12:29.459Z,25.27
2018-10-17T06:14:58.252Z,25.23
2018-10-17T06:17:27.109Z,24.23
2018-10-17T06:19:55.752Z,25.17
2018-10-17T06:22:24.453Z,24.50
2018-10-17T06:24:53.111Z,25.47
2018-10-17T06:27:21.693Z,25.67
2018-10-17T06:29:50.264Z,24.73
2018-10-17T06:32:18.960Z,24.13
2018-10-17T06:34:47.872Z,24.47
2018-10-17T06:37:16.607Z,26.60
2018-10-17T06:39:45.513Z,25.23
2018-10-17T06:42:14.444Z,25.03
2018-10-17T06:44:43.227Z,25.27
2018-10-17T06:47:12.152Z,25.47
2018-10-17T06:49:40.905Z,25.90
2018-10-17T06:52:09.675Z,25.77
2018-10-17T06:54:38.887Z,26.43
2018-10-17T06:57:08.103Z,25.90
2018-10-17T06:59:37.199Z,24.83
2018-10-17T07:02:06.468Z,26.50
2018-10-17T07:04:35.316Z,26.10
2018-10-17T07:07:04.256Z,26.43
2018-10-17T07:09:33.700Z,26.77
2018-10-17T07:12:03.643Z,24.87
2018-10-17T07:14:34.058Z,26.13
2018-10-17T07:17:03.332Z,24.23
2018-10-17T07:19:33.514Z,25.83
2018-10-17T07:22:02.589Z,26.20
2018-10-17T07:24:31.435Z,27.10
2018-10-17T07:27:01.113Z,26.57
2018-10-17T07:29:30.239Z,24.90
2018-10-17T07:32:00.024Z,26.30
2018-10-17T07:34:28.945Z,26.70
2018-10-17T07:36:57.688Z,27.03
2018-10-17T07:39:26.504Z,27.17
2018-10-17T07:41:55.595Z,29.07
2018-10-17T07:44:24.736Z,28.77
2018-10-17T07:46:54.290Z,28.43
2018-10-17T07:49:23.196Z,36.73
2018-10-17T07:51:52.854Z,40.53
2018-10-17T07:54:22.095Z,42.57
2018-10-17T07:56:51.575Z,42.13
2018-10-17T07:59:20.501Z,43.27
2018-10-17T08:01:49.383Z,43.80
2018-10-17T08:04:18.842Z,43.47
2018-10-17T08:06:49.569Z,43.17
2018-10-17T08:09:18.905Z,43.60
2018-10-17T08:11:47.625Z,41.37
2018-10-17T08:14:16.738Z,45.73
2018-10-17T08:16:46.003Z,45.10
2018-10-17T08:19:14.909Z,41.73
2018-10-17T08:21:43.867Z,42.17
2018-10-17T08:24:12.789Z,39.57
2018-10-17T08:26:45.627Z,39.63
2018-10-17T08:29:19.184Z,37.83
2018-10-17T08:31:49.556Z,39.27
2018-10-17T08:37:18.605Z,38.10
2018-10-17T08:40:03.802Z,38.13
2018-10-17T08:42:35.752Z,38.97
2018-10-17T08:45:08.490Z,38.07
2018-10-17T08:47:39.501Z,36.03
2018-10-17T08:50:09.104Z,38.00
2018-10-17T08:52:38.885Z,37.47
2018-10-17T08:55:12.736Z,39.30
2018-10-17T08:57:44.187Z,36.47
2018-10-17T09:00:16.661Z,37.70
2018-10-17T09:02:46.747Z,35.60
2018-10-17T09:05:15.610Z,34.93
2018-10-17T09:07:44.660Z,37.97
2018-10-17T09:10:13.565Z,36.03
2018-10-17T09:12:42.406Z,34.50
2018-10-17T09:15:12.328Z,32.90
2018-10-17T09:17:43.196Z,34.63
2018-10-17T09:20:14.119Z,33.30
2018-10-17T09:22:44.967Z,34.27
2018-10-17T09:25:13.788Z,34.27
2018-10-17T09:27:43.755Z,35.40
2018-10-17T09:30:14.243Z,34.03
2018-10-17T09:32:46.176Z,32.50
2018-10-17T09:35:16.304Z,32.70
2018-10-17T09:37:50.412Z,33.87
2018-10-17T09:40:20.574Z,33.27
2018-10-17T09:42:49.638Z,33.53
2018-10-17T09:45:18.649Z,33.47
2018-10-17T09:47:52.647Z,32.27
2018-10-17T09:50:22.575Z,30.87
2018-10-17T09:52:51.619Z,31.10
2018-10-17T09:55:22.111Z,29.03
2018-10-17T09:57:50.993Z,28.37
2018-10-17T10:00:27.462Z,26.63
2018-10-17T10:02:56.348Z,26.47
2018-10-17T10:05:25.562Z,25.10
2018-10-17T10:07:55.856Z,26.10
2018-10-17T10:10:25.514Z,25.33
2018-10-17T10:12:54.562Z,24.97
2018-10-17T10:15:23.498Z,25.63
2018-10-17T10:17:53.891Z,27.13
2018-10-17T10:20:23.971Z,26.13
2018-10-17T10:23:00.119Z,27.90
2018-10-17T10:25:28.941Z,28.30
2018-10-17T10:28:00.387Z,27.60
2018-10-17T10:30:31.187Z,27.10
2018-10-17T10:33:02.631Z,27.47
2018-10-17T10:35:32.344Z,26.67
2018-10-17T10:38:01.869Z,27.63
2018-10-17T10:40:31.382Z,27.37
2018-10-17T10:43:00.264Z,26.93
2018-10-17T10:45:29.277Z,26.50
2018-10-17T10:47:59.012Z,26.10
2018-10-17T10:50:28.219Z,27.07
2018-10-17T10:52:57.345Z,27.00
2018-10-17T10:55:26.635Z,26.37
2018-10-17T10:57:56.116Z,28.07
2018-10-17T11:00:24.952Z,25.57
2018-10-17T11:02:54.280Z,26.67
2018-10-17T11:05:23.481Z,25.80
2018-10-17T11:07:52.791Z,25.83
2018-10-17T11:10:21.602Z,26.40
2018-10-17T11:12:51.530Z,26.17
2018-10-17T11:15:21.728Z,25.03
2018-10-17T11:17:50.692Z,26.93
2018-10-17T11:20:19.531Z,25.20
2018-10-17T11:22:49.453Z,23.73
2018-10-17T11:25:18.615Z,25.23
2018-10-17T11:27:48.303Z,25.07
2018-10-17T11:30:20.129Z,22.87
2018-10-17T11:32:49.098Z,24.10
2018-10-17T11:35:18.030Z,23.40
2018-10-17T11:37:47.067Z,22.73
2018-10-17T11:40:18.134Z,23.30
2018-10-17T11:42:50.974Z,21.93
2018-10-17T11:45:20.642Z,23.10
2018-10-17T11:47:52.941Z,23.03
2018-10-17T11:50:22.820Z,23.27
2018-10-17T11:52:53.274Z,23.37
2018-10-17T11:55:26.002Z,21.83
2018-10-17T11:57:56.267Z,21.10
2018-10-17T12:00:25.236Z,22.13
2018-10-17T12:02:56.981Z,20.50
2018-10-17T12:05:26.144Z,19.47
2018-10-17T12:07:55.376Z,19.97
2018-10-17T12:10:27.731Z,18.93
2018-10-17T12:12:57.357Z,18.93
2018-10-17T12:15:26.592Z,18.57
2018-10-17T12:17:56.633Z,18.67
2018-10-17T12:20:26.040Z,17.77
2018-10-17T12:22:54.807Z,18.17
2018-10-17T12:25:24.218Z,16.03
2018-10-17T12:27:53.272Z,16.70
2018-10-17T12:30:22.351Z,15.80
2018-10-17T12:32:51.296Z,15.80
2018-10-17T12:35:20.589Z,16.87
2018-10-17T12:37:50.256Z,16.87
2018-10-17T12:40:19.896Z,16.63
2018-10-17T12:42:48.534Z,15.50
2018-10-17T12:45:19.126Z,15.57
2018-10-17T12:47:47.892Z,15.33
2018-10-17T12:50:17.637Z,14.63
2018-10-17T12:52:46.830Z,14.93
2018-10-17T12:55:15.837Z,14.33
2018-10-17T12:57:46.321Z,16.53
2018-10-17T13:00:15.277Z,14.63
2018-10-17T13:02:44.383Z,15.10
2018-10-17T13:05:14.165Z,14.07
2018-10-17T13:07:43.865Z,14.20
2018-10-17T13:10:14.969Z,13.63
2018-10-17T13:12:45.420Z,14.23
2018-10-17T13:15:14.753Z,13.77
2018-10-17T13:17:49.406Z,12.87
2018-10-17T13:20:20.986Z,13.67
2018-10-17T13:22:52.773Z,13.57
2018-10-17T13:25:23.040Z,13.60
2018-10-17T13:27:59.443Z,12.57
2018-10-17T13:30:31.009Z,13.03
2018-10-17T13:32:59.827Z,13.13
2018-10-17T13:35:30.352Z,11.67
2018-10-17T13:37:59.279Z,12.17
2018-10-17T13:40:28.111Z,11.97
2018-10-17T13:42:58.059Z,12.43
2018-10-17T13:45:27.454Z,11.53
2018-10-17T13:47:56.767Z,11.63
2018-10-17T13:50:25.609Z,11.80
2018-10-17T13:52:54.591Z,12.10
2018-10-17T13:55:23.839Z,11.93
2018-10-17T13:57:52.711Z,12.30
2018-10-17T14:00:21.626Z,11.37
2018-10-17T14:02:50.310Z,11.80
2018-10-17T14:05:19.092Z,11.80
2018-10-17T14:07:47.956Z,12.10
2018-10-17T14:10:20.636Z,12.57
2018-10-17T14:12:49.766Z,11.67
2018-10-17T14:15:18.768Z,11.47
2018-10-17T14:17:47.642Z,11.60
2018-10-17T14:20:16.515Z,11.77
2018-10-17T14:22:45.338Z,11.33
2018-10-17T14:25:14.786Z,11.70
2018-10-17T14:27:45.915Z,11.47
2018-10-17T14:30:15.150Z,12.00
2018-10-17T14:32:44.372Z,11.57
2018-10-17T14:35:13.381Z,10.90
2018-10-17T14:37:45.810Z,11.00
2018-10-17T14:40:15.945Z,10.77
2018-10-17T14:42:45.436Z,11.47
2018-10-17T14:45:14.544Z,11.97
2018-10-17T14:47:43.134Z,12.13
2018-10-17T14:50:12.205Z,10.90
2018-10-17T14:52:44.189Z,12.33
2018-10-17T14:55:17.252Z,11.83
2018-10-17T14:57:47.096Z,12.60
2018-10-17T15:00:18.346Z,12.63
2018-10-17T15:02:53.127Z,12.07
2018-10-17T15:05:25.755Z,13.57
2018-10-17T15:07:56.349Z,12.57
2018-10-17T15:10:29.703Z,13.03
2018-10-17T15:12:59.621Z,12.47
2018-10-17T15:15:31.101Z,11.93
2018-10-17T15:18:00.496Z,11.97
2018-10-17T15:20:31.897Z,12.27
2018-10-17T15:23:01.482Z,12.10
2018-10-17T15:25:30.428Z,12.50
2018-10-17T15:27:59.382Z,12.20
2018-10-17T15:30:28.427Z,12.17
2018-10-17T15:32:57.380Z,12.03
2018-10-17T15:35:27.488Z,11.80
2018-10-17T15:37:58.283Z,12.43
2018-10-17T15:40:27.086Z,12.40
2018-10-17T15:42:57.093Z,12.60
2018-10-17T15:45:25.945Z,11.93
2018-10-17T15:47:54.719Z,12.33
2018-10-17T15:50:23.559Z,11.77
2018-10-17T15:52:54.770Z,12.13
2018-10-17T15:55:25.913Z,12.23
2018-10-17T15:57:54.910Z,12.40
2018-10-17T16:00:24.110Z,12.33
2018-10-17T16:02:52.930Z,12.10
2018-10-17T16:05:23.880Z,12.33
2018-10-17T16:07:53.255Z,12.00
2018-10-17T16:10:29.320Z,12.33
2018-10-17T16:12:59.997Z,11.80
2018-10-17T16:15:33.803Z,12.47
2018-10-17T16:18:06.058Z,12.43
2018-10-17T16:20:36.095Z,11.80
2018-10-17T16:23:06.666Z,11.47
2018-10-17T16:25:43.599Z,12.10
2018-10-17T16:28:23.137Z,12.00
2018-10-17T16:30:52.263Z,12.10
2018-10-17T16:33:22.938Z,12.27
2018-10-17T16:35:52.341Z,12.50
2018-10-17T16:38:21.402Z,12.83
2018-10-17T16:40:50.357Z,12.63
2018-10-17T16:43:19.264Z,12.27
2018-10-17T16:45:48.124Z,12.60
2018-10-17T16:48:19.829Z,12.77
2018-10-17T16:50:48.869Z,13.03
2018-10-17T16:53:17.469Z,13.13
2018-10-17T16:55:46.396Z,12.60
2018-10-17T16:58:15.705Z,12.10
2018-10-17T17:00:44.713Z,13.37
2018-10-17T17:03:13.899Z,12.20
2018-10-17T17:05:45.618Z,12.33
2018-10-17T17:08:18.411Z,12.73
2018-10-17T17:10:49.374Z,14.47
2018-10-17T17:13:21.115Z,15.73
2018-10-17T17:15:57.826Z,17.60
2018-10-17T17:18:27.778Z,17.73
2018-10-17T17:20:59.556Z,15.47
2018-10-17T17:23:30.162Z,15.47
2018-10-17T17:26:01.666Z,15.73
2018-10-17T17:28:32.706Z,14.70
2018-10-17T17:31:02.040Z,15.43
2018-10-17T17:33:32.784Z,15.43
2018-10-17T17:36:03.243Z,16.50
2018-10-17T17:38:36.204Z,16.93
2018-10-17T17:41:13.427Z,19.10
2018-10-17T17:43:48.818Z,17.40
2018-10-17T17:46:20.742Z,19.80
2018-10-17T17:48:49.496Z,23.00
2018-10-17T17:51:18.098Z,25.87
2018-10-17T17:53:46.883Z,20.77
2018-10-17T17:56:15.552Z,18.40
2018-10-17T17:58:44.492Z,16.20
2018-10-17T18:01:13.528Z,15.07
2018-10-17T18:03:42.499Z,14.27
2018-10-17T18:06:11.381Z,14.57
2018-10-17T18:08:41.908Z,13.80
2018-10-17T18:11:25.403Z,13.80
2018-10-17T18:13:55.444Z,14.23
2018-10-17T18:16:24.346Z,13.23
2018-10-17T18:18:53.214Z,13.00
2018-10-17T18:21:22.695Z,13.03
2018-10-17T18:23:51.613Z,11.60
2018-10-17T18:26:20.448Z,11.30
2018-10-17T18:28:49.324Z,11.53
2018-10-17T18:31:18.170Z,10.17
2018-10-17T18:33:46.889Z,10.07
2018-10-17T18:36:17.352Z,9.83
2018-10-17T18:38:54.099Z,9.40
2018-10-17T18:41:23.205Z,10.40
2018-10-17T18:43:53.013Z,9.47
2018-10-17T18:46:22.094Z,8.97
2018-10-17T18:48:50.993Z,9.37
2018-10-17T18:51:21.424Z,9.20
2018-10-17T18:53:50.622Z,10.07
2018-10-17T18:56:20.113Z,9.17
2018-10-17T18:58:49.204Z,9.13
2018-10-17T19:01:18.068Z,8.50
2018-10-17T19:03:46.974Z,9.77
2018-10-17T19:06:15.930Z,9.53
2018-10-17T19:08:44.700Z,9.97
2018-10-17T19:11:13.447Z,9.30
2018-10-17T19:13:42.427Z,13.80
2018-10-17T19:16:11.455Z,8.63
2018-10-17T19:18:40.181Z,9.03
2018-10-17T19:21:09.253Z,9.07
2018-10-17T19:23:38.182Z,9.33
2018-10-17T19:26:06.983Z,9.80
2018-10-17T19:28:37.330Z,10.10
2018-10-17T19:31:06.503Z,15.97
2018-10-17T19:33:36.823Z,16.50
2018-10-17T19:36:06.117Z,29.80
2018-10-17T19:38:35.291Z,9.07
2018-10-17T19:41:18.886Z,10.20
2018-10-17T19:43:47.631Z,10.40
2018-10-17T19:46:16.428Z,9.60
2018-10-17T19:48:45.080Z,9.90
2018-10-17T19:51:13.868Z,11.13
2018-10-17T19:53:42.532Z,10.27
2018-10-17T19:56:11.359Z,12.00
2018-10-17T19:58:40.134Z,10.33
2018-10-17T20:01:08.958Z,14.40
2018-10-17T20:03:37.840Z,10.47
2018-10-17T20:06:06.656Z,11.47
2018-10-17T20:08:35.544Z,11.13
2018-10-17T20:11:04.455Z,11.70
2018-10-17T20:13:33.708Z,10.63
2018-10-17T20:16:03.568Z,10.60
2018-10-17T20:18:32.466Z,10.53
2018-10-17T20:21:02.571Z,10.97
2018-10-17T20:23:31.591Z,10.80
2018-10-17T20:26:00.352Z,11.93
2018-10-17T20:28:29.011Z,12.27
2018-10-17T20:30:57.745Z,11.53
2018-10-17T20:33:26.469Z,11.23
2018-10-17T20:35:55.224Z,13.43
2018-10-17T20:38:24.009Z,13.17
2018-10-17T20:40:52.840Z,10.90
2018-10-17T20:43:21.601Z,11.60
2018-10-17T20:45:50.312Z,11.90
2018-10-17T20:48:19.126Z,11.63
2018-10-17T20:50:47.868Z,12.83
2018-10-17T20:53:16.532Z,13.87
2018-10-17T20:55:45.278Z,14.93
2018-10-17T20:58:13.994Z,15.47
2018-10-17T21:00:42.672Z,15.97
2018-10-17T21:03:11.358Z,15.20
2018-10-17T21:05:40.299Z,15.33
2018-10-17T21:08:09.009Z,15.70
2018-10-17T21:10:37.853Z,15.27
2018-10-17T21:13:06.783Z,12.90
2018-10-17T21:15:35.701Z,13.47
2018-10-17T21:18:04.338Z,11.30
2018-10-17T21:20:33.032Z,11.03
2018-10-17T21:23:01.713Z,9.40
2018-10-17T21:25:30.360Z,9.73
2018-10-17T21:27:58.970Z,9.33
2018-10-17T21:30:27.664Z,9.40
2018-10-17T21:32:56.290Z,10.30
2018-10-17T21:35:25.074Z,13.03
2018-10-17T21:37:53.832Z,13.87
2018-10-17T21:40:22.468Z,13.30
2018-10-17T21:42:51.075Z,12.87
2018-10-17T21:45:19.753Z,15.53
2018-10-17T21:47:48.494Z,17.10
2018-10-17T21:50:17.223Z,17.63
2018-10-17T21:52:45.841Z,16.20
2018-10-17T21:55:14.445Z,16.80
2018-10-17T21:57:43.231Z,14.47
2018-10-17T22:00:12.045Z,15.10
2018-10-17T22:02:40.748Z,14.07
2018-10-17T22:05:10.524Z,13.80
2018-10-17T22:07:39.211Z,14.97
2018-10-17T22:10:08.702Z,16.20
2018-10-17T22:12:37.586Z,17.03
2018-10-17T22:15:07.998Z,19.67
2018-10-17T22:17:36.626Z,19.70
2018-10-17T22:20:05.956Z,18.60
2018-10-17T22:22:34.474Z,16.77
2018-10-17T22:25:03.146Z,15.77
2018-10-17T22:27:31.882Z,14.20
2018-10-17T22:30:00.623Z,13.17
2018-10-17T22:32:29.309Z,13.30
2018-10-17T22:34:58.004Z,12.17
2018-10-17T22:37:26.652Z,13.77
2018-10-17T22:39:55.239Z,13.43
2018-10-17T22:42:23.869Z,13.40
2018-10-17T22:44:52.547Z,12.93
2018-10-17T22:47:21.277Z,12.73
2018-10-17T22:49:49.977Z,12.60
2018-10-17T22:52:18.593Z,15.37
2018-10-17T22:54:47.244Z,15.83
2018-10-17T22:57:15.888Z,17.97
2018-10-17T22:59:44.606Z,16.93
2018-10-17T23:02:13.453Z,12.87
2018-10-17T23:04:42.009Z,11.00
2018-10-17T23:07:10.706Z,11.30
2018-10-17T23:09:39.400Z,11.20
2018-10-17T23:12:08.082Z,11.20
2018-10-17T23:14:36.833Z,12.77
2018-10-17T23:17:05.657Z,13.23
2018-10-17T23:19:34.336Z,11.10
2018-10-17T23:22:02.993Z,11.97
2018-10-17T23:24:31.686Z,11.33
2018-10-17T23:27:00.311Z,10.67
2018-10-17T23:29:29.032Z,10.40
2018-10-17T23:31:57.774Z,10.00
2018-10-17T23:34:26.448Z,10.17
2018-10-17T23:36:55.158Z,11.00
2018-10-17T23:39:23.822Z,9.80
2018-10-17T23:41:52.501Z,9.90
2018-10-17T23:44:21.255Z,9.43
2018-10-17T23:46:49.926Z,9.73
2018-10-17T23:49:18.564Z,9.63
2018-10-17T23:51:47.223Z,10.60
2018-10-17T23:54:16.028Z,11.13
2018-10-17T23:56:44.613Z,10.93
2018-10-17T23:59:13.235Z,12.50
